Terminal Aerodrome Forecast
Issued by NWS Sterling, VA

Home | Current Version | Previous Version | Text Only | Print | Product List | Glossary On
Versions: 1 2 3 4 5 6 7 8 9 10 11 12 13 14 15 16 17 18 19 20 21 22 23 24 25 26
000
FTUS41 KLWX 012341
TAFBWI
TAF
KBWI 012341Z 0200/0306 VRB04KT 2SM TSRA BR SCT015 OVC035CB
      TEMPO 0200/0202 VRB25KT 1/4SM +TSRA OVC010CB
     FM020300 08007KT 5SM -SHRA BR OVC040
     FM020700 05006KT 5SM -SHRA BR OVC010
     FM021000 36009KT 5SM BR OVC008
     FM021600 04008KT P6SM OVC010=

USA.gov is the U.S. government's official web portal to all federal, state and local government web resources and services.